Time;durP1;ratioP1;P1;durP2;ratioP2;P2;SDS_P1;SDS_P2;PMS_P1;PMS_P2;Temp;Humidity;BMP_temperature;BMP_pressure;BME280_temperature;BME280_humidity;BME280_pressure;Samples;Min_cycle;Max_cycle;Signal;HPM_P1;HPM_P2
2023/08/17 00:01:23;;;;;;;4.57;2.72;;;;;;;27.11;43.25;99591.94;5090093;28;20023;-44
2023/08/17 00:03:48;;;;;;;7.53;3.20;;;;;;;27.02;43.56;99591.94;5089881;28;20024;-46
2023/08/17 00:06:14;;;;;;;4.32;2.60;;;;;;;26.86;43.13;99575.19;5089858;28;20028;-47
2023/08/17 00:08:39;;;;;;;6.50;2.80;;;;;;;26.88;43.07;99594.81;5089742;28;20023;-43
2023/08/17 00:11:05;;;;;;;4.75;2.88;;;;;;;26.84;42.91;99585.59;5089895;28;20499;-47
2023/08/17 00:13:30;;;;;;;6.13;3.20;;;;;;;26.73;43.75;99589.75;5089939;28;20472;-46
2023/08/17 00:15:55;;;;;;;4.43;3.10;;;;;;;26.39;44.95;99591.19;5088535;28;20108;-43
2023/08/17 00:18:21;;;;;;;4.70;2.80;;;;;;;25.96;45.92;99594.44;5089888;28;20093;-44
2023/08/17 00:20:48;;;;;;;4.72;3.10;;;;;;;25.72;46.73;99589.22;5089714;28;20050;-44
2023/08/17 00:23:13;;;;;;;4.97;2.95;;;;;;;25.46;47.54;99598.00;5089614;28;20027;-43
2023/08/17 00:25:39;;;;;;;4.32;3.10;;;;;;;25.72;47.07;99595.50;5089616;28;20028;-46
2023/08/17 00:28:04;;;;;;;5.53;3.30;;;;;;;25.59;47.46;99593.63;5089546;28;20063;-45
2023/08/17 00:30:30;;;;;;;5.43;3.03;;;;;;;25.58;47.66;99594.72;5089415;28;20119;-43
2023/08/17 00:32:55;;;;;;;5.40;3.20;;;;;;;25.68;47.66;99594.50;5089825;28;20024;-45
2023/08/17 00:35:20;;;;;;;7.20;3.63;;;;;;;25.87;47.26;99588.06;5089602;28;20111;-46
2023/08/17 00:37:46;;;;;;;4.97;3.25;;;;;;;25.65;47.81;99589.66;5047301;28;1192049;-43
2023/08/17 00:40:12;;;;;;;6.72;3.42;;;;;;;25.07;49.46;99585.69;5090351;28;20500;-44
2023/08/17 00:42:37;;;;;;;4.70;3.30;;;;;;;25.42;48.36;99590.72;5090652;28;20530;-44
2023/08/17 00:45:03;;;;;;;5.28;3.35;;;;;;;25.08;49.51;99589.25;5090284;28;20057;-46
2023/08/17 00:47:28;;;;;;;6.22;3.40;;;;;;;24.94;49.91;99590.06;5090374;28;20026;-44
2023/08/17 00:49:56;;;;;;;4.70;3.30;;;;;;;24.41;51.69;99590.50;5090365;28;20028;-45
2023/08/17 00:52:22;;;;;;;4.72;3.45;;;;;;;24.72;50.88;99600.84;5090207;28;20390;-43
2023/08/17 00:54:48;;;;;;;7.18;3.60;;;;;;;24.99;50.13;99594.59;5090276;28;20564;-45
2023/08/17 00:57:14;;;;;;;4.30;3.50;;;;;;;24.92;50.40;99583.28;5090174;28;20036;-46
2023/08/17 00:59:39;;;;;;;6.53;3.88;;;;;;;25.07;50.22;99582.97;5090240;28;20461;-44
2023/08/17 01:02:05;;;;;;;5.57;3.35;;;;;;;25.39;49.53;99594.06;5090021;28;20024;-46
2023/08/17 01:04:32;;;;;;;7.90;3.50;;;;;;;25.48;49.47;99598.50;5090357;28;20442;-45
2023/08/17 01:06:57;;;;;;;6.78;3.95;;;;;;;25.43;49.40;99604.03;5089939;28;20501;-44
2023/08/17 01:09:23;;;;;;;5.05;3.65;;;;;;;25.44;49.64;99599.41;5090243;28;20024;-46
2023/08/17 01:11:55;;;;;;;6.53;3.45;;;;;;;25.21;50.78;99602.03;5090183;28;20024;-44
2023/08/17 01:14:33;;;;;;;5.70;3.65;;;;;;;25.31;50.32;99599.13;5090014;28;20118;-45
2023/08/17 01:17:12;;;;;;;6.25;3.38;;;;;;;25.54;50.09;99597.25;5089970;28;20063;-44
2023/08/17 01:19:38;;;;;;;6.50;3.35;;;;;;;25.59;49.83;99590.91;5090007;28;20035;-46
2023/08/17 01:22:05;;;;;;;6.95;3.78;;;;;;;25.61;49.65;99593.28;5071884;28;20047;-43
2023/08/17 01:24:31;;;;;;;5.85;3.67;;;;;;;25.67;49.76;99592.88;5089889;28;20077;-44
2023/08/17 01:26:56;;;;;;;7.03;3.72;;;;;;;25.71;49.77;99585.69;5073525;28;20020;-46
2023/08/17 01:29:22;;;;;;;7.05;3.85;;;;;;;25.77;49.63;99585.59;5093614;28;20095;-46
2023/08/17 01:32:07;;;;;;;11.00;3.83;;;;;;;25.56;50.14;99595.03;5093634;28;20031;-46
2023/08/17 01:34:39;;;;;;;7.00;3.53;;;;;;;25.31;51.17;99596.41;5093682;28;20023;-44
2023/08/17 01:37:07;;;;;;;6.55;3.67;;;;;;;25.44;50.68;99602.94;5093443;28;20020;-42
2023/08/17 01:39:39;;;;;;;5.38;3.63;;;;;;;25.52;50.10;99585.88;5093041;28;20339;-47
2023/08/17 01:42:06;;;;;;;5.25;3.47;;;;;;;25.62;49.94;99594.94;5093366;28;20035;-44
2023/08/17 01:44:32;;;;;;;6.70;3.78;;;;;;;25.53;50.38;99587.50;5092929;28;20024;-46
2023/08/17 01:46:57;;;;;;;5.45;3.25;;;;;;;25.50;50.62;99598.19;5093425;28;20023;-48
2023/08/17 01:49:23;;;;;;;6.18;3.85;;;;;;;25.54;50.62;99591.00;5093365;28;20031;-44
2023/08/17 01:51:48;;;;;;;5.75;3.60;;;;;;;25.45;50.77;99593.63;5093287;28;20030;-44
2023/08/17 01:54:14;;;;;;;7.10;3.75;;;;;;;25.41;51.23;99583.69;5093162;28;20020;-42
2023/08/17 01:56:39;;;;;;;6.22;3.75;;;;;;;25.51;50.88;99588.88;5092732;28;20020;-42
2023/08/17 01:59:05;;;;;;;11.35;4.10;;;;;;;25.43;50.77;99587.69;5092983;28;20103;-46
2023/08/17 02:01:30;;;;;;;7.07;4.05;;;;;;;25.36;50.98;99584.63;5093073;28;20157;-48
2023/08/17 02:03:55;;;;;;;7.35;3.97;;;;;;;25.38;50.77;99576.94;5093068;28;20108;-47
2023/08/17 02:06:21;;;;;;;8.48;3.90;;;;;;;25.33;51.30;99583.28;5092635;28;20019;-44
2023/08/17 02:08:46;;;;;;;6.60;3.80;;;;;;;25.32;51.45;99576.25;5093021;28;20100;-46
2023/08/17 02:11:12;;;;;;;7.43;3.80;;;;;;;25.20;51.85;99578.63;5092867;28;20099;-43
2023/08/17 02:13:37;;;;;;;8.85;4.32;;;;;;;25.29;51.48;99582.28;5092439;28;20099;-44
2023/08/17 02:16:04;;;;;;;5.97;3.97;;;;;;;25.30;51.74;99583.09;5092706;28;20145;-44
2023/08/17 02:18:31;;;;;;;5.63;3.85;;;;;;;25.32;51.24;99578.97;5092955;28;20020;-43
2023/08/17 02:20:57;;;;;;;7.15;4.00;;;;;;;25.15;51.79;99576.84;5092947;28;20031;-44
2023/08/17 02:23:22;;;;;;;7.03;3.65;;;;;;;25.03;52.04;99575.75;5092481;28;20110;-45
2023/08/17 02:25:48;;;;;;;5.57;3.78;;;;;;;25.03;51.90;99573.00;5092412;28;20062;-44
2023/08/17 02:28:13;;;;;;;9.73;4.30;;;;;;;24.80;52.76;99581.09;5092153;28;20498;-45
2023/08/17 02:30:39;;;;;;;7.35;4.10;;;;;;;24.55;53.42;99576.94;5092411;28;20030;-42
2023/08/17 02:33:04;;;;;;;5.93;3.90;;;;;;;24.44;53.83;99576.28;5092071;28;20043;-46
2023/08/17 02:35:30;;;;;;;6.80;4.10;;;;;;;24.08;55.20;99582.31;5092093;28;20024;-45
2023/08/17 02:37:55;;;;;;;8.18;4.60;;;;;;;24.43;54.26;99585.56;5090963;28;20496;-47
2023/08/17 02:40:21;;;;;;;8.02;4.40;;;;;;;24.50;54.10;99577.00;5091967;28;20049;-46
2023/08/17 02:42:46;;;;;;;6.90;4.15;;;;;;;24.62;53.95;99576.53;5092211;28;20028;-44
2023/08/17 02:45:12;;;;;;;5.88;4.00;;;;;;;24.64;53.69;99580.59;5073911;28;20457;-43
2023/08/17 02:47:38;;;;;;;4.95;3.45;;;;;;;24.74;53.44;99585.81;5092057;28;20072;-44
2023/08/17 02:50:03;;;;;;;7.05;3.90;;;;;;;24.78;53.44;99583.31;5092011;28;20402;-45
2023/08/17 02:52:29;;;;;;;4.05;3.65;;;;;;;24.77;53.21;99589.88;5091101;28;20039;-46
2023/08/17 02:54:54;;;;;;;6.50;4.00;;;;;;;24.67;53.51;99584.59;5091959;28;20411;-46
2023/08/17 02:57:20;;;;;;;6.95;3.90;;;;;;;24.59;53.94;99580.66;5091911;28;20024;-44
2023/08/17 02:59:45;;;;;;;7.07;4.10;;;;;;;24.62;53.38;99585.53;5092046;28;20024;-46
2023/08/17 03:02:11;;;;;;;8.52;3.78;;;;;;;24.60;53.39;99587.72;5091591;28;20384;-42
2023/08/17 03:04:36;;;;;;;7.47;3.75;;;;;;;24.75;52.94;99586.63;5091587;28;20032;-46
2023/08/17 03:07:02;;;;;;;6.38;4.00;;;;;;;24.80;52.47;99583.00;5091926;28;20075;-42
2023/08/17 03:09:27;;;;;;;6.30;3.72;;;;;;;24.79;52.65;99582.22;5091540;28;20028;-44
2023/08/17 03:11:53;;;;;;;7.50;4.25;;;;;;;24.81;52.81;99579.16;5091362;28;20024;-43
2023/08/17 03:14:18;;;;;;;12.55;7.68;;;;;;;24.88;52.22;99576.84;5091174;28;20441;-44
2023/08/17 03:16:44;;;;;;;9.85;7.28;;;;;;;24.83;51.76;99580.50;5091455;28;20020;-46
2023/08/17 03:19:11;;;;;;;12.88;7.45;;;;;;;24.86;51.99;99584.50;5091461;28;20553;-43
2023/08/17 03:21:36;;;;;;;6.93;4.50;;;;;;;24.73;52.20;99583.38;5091194;28;20024;-43
2023/08/17 03:24:02;;;;;;;5.75;3.70;;;;;;;24.69;52.19;99585.09;5091191;28;20407;-45
2023/08/17 03:26:28;;;;;;;12.50;5.53;;;;;;;24.76;52.97;99590.97;5091246;28;20096;-44
2023/08/17 03:28:53;;;;;;;12.18;4.93;;;;;;;24.76;52.98;99593.69;5091017;28;20480;-42
2023/08/17 03:31:21;;;;;;;6.05;3.90;;;;;;;24.60;53.22;99587.72;5090956;28;20114;-42
2023/08/17 03:33:46;;;;;;;7.15;4.30;;;;;;;24.48;53.30;99588.16;5091054;28;20024;-41
2023/08/17 03:36:12;;;;;;;10.48;4.28;;;;;;;24.38;53.04;99597.31;5091022;28;20032;-43
2023/08/17 03:38:39;;;;;;;7.47;4.38;;;;;;;24.14;53.47;99597.47;5090980;28;20058;-42
2023/08/17 03:41:05;;;;;;;9.18;4.35;;;;;;;24.03;53.94;99597.91;5091169;28;20104;-47
2023/08/17 03:43:30;;;;;;;6.45;4.10;;;;;;;24.06;54.38;99595.41;5072708;28;20028;-46
2023/08/17 03:45:56;;;;;;;9.35;4.10;;;;;;;24.10;54.18;99604.59;5090886;28;20020;-43
2023/08/17 03:48:22;;;;;;;9.02;4.53;;;;;;;24.25;53.81;99605.44;5091033;28;20038;-42
2023/08/17 03:50:54;;;;;;;7.55;4.53;;;;;;;24.23;53.65;99607.66;5090182;28;20407;-44
2023/08/17 03:53:20;;;;;;;6.45;4.03;;;;;;;24.33;53.51;99604.75;5090362;28;20094;-44
2023/08/17 03:55:49;;;;;;;7.93;4.28;;;;;;;24.36;53.93;99604.97;5090379;28;20549;-41
2023/08/17 03:58:15;;;;;;;8.43;4.63;;;;;;;24.45;53.71;99602.38;5090535;28;20099;-46
2023/08/17 04:00:42;;;;;;;8.20;4.53;;;;;;;24.42;53.88;99600.25;5090697;28;20027;-43
2023/08/17 04:03:07;;;;;;;7.20;4.70;;;;;;;24.28;54.11;99602.94;5090917;28;20024;-43
2023/08/17 04:05:33;;;;;;;9.55;4.72;;;;;;;24.53;53.48;99609.88;5090745;28;20471;-42
2023/08/17 04:08:03;;;;;;;10.57;5.43;;;;;;;24.84;52.40;99612.03;5090660;28;20027;-42
2023/08/17 04:10:29;;;;;;;9.68;4.43;;;;;;;25.02;51.56;99604.88;5090506;28;20429;-44
2023/08/17 04:12:56;;;;;;;16.17;6.50;;;;;;;25.17;51.60;99606.50;5090843;28;20024;-42
2023/08/17 04:15:22;;;;;;;10.60;5.45;;;;;;;25.45;50.87;99604.53;5090844;28;20103;-43
2023/08/17 04:17:47;;;;;;;12.18;4.97;;;;;;;25.70;50.36;99602.34;5090486;28;20418;-43
2023/08/17 04:20:13;;;;;;;9.82;5.15;;;;;;;25.93;49.44;99597.75;5090659;28;20023;-44
2023/08/17 04:22:38;;;;;;;12.73;4.95;;;;;;;26.24;49.00;99611.47;5090527;28;20016;-44
2023/08/17 04:25:04;;;;;;;9.40;4.57;;;;;;;26.50;48.37;99610.78;5090160;28;20107;-44
2023/08/17 04:27:29;;;;;;;9.43;4.40;;;;;;;26.79;46.90;99604.06;5090700;28;20024;-43
2023/08/17 04:29:55;;;;;;;11.75;4.40;;;;;;;27.10;45.89;99609.47;5090634;28;20442;-43
2023/08/17 04:32:20;;;;;;;10.63;4.53;;;;;;;27.34;45.67;99608.25;5090528;28;20024;-46
2023/08/17 04:34:46;;;;;;;9.32;4.38;;;;;;;27.63;44.96;99611.19;5090430;28;20024;-44
2023/08/17 04:37:11;;;;;;;7.82;3.95;;;;;;;27.83;44.23;99608.94;5090109;28;20035;-43
2023/08/17 04:39:37;;;;;;;6.10;3.70;;;;;;;28.15;42.62;99609.59;5089940;28;20405;-43
2023/08/17 04:42:04;;;;;;;7.30;3.78;;;;;;;28.29;41.53;99612.94;5090244;28;20020;-43
2023/08/17 04:44:29;;;;;;;7.45;3.90;;;;;;;28.63;41.11;99609.31;5090282;28;20024;-45
2023/08/17 04:46:55;;;;;;;9.60;4.00;;;;;;;29.04;40.62;99609.81;5090129;28;20027;-46
2023/08/17 04:49:20;;;;;;;6.53;3.58;;;;;;;29.37;40.16;99609.16;5090444;28;20020;-44
2023/08/17 04:51:45;;;;;;;8.27;3.85;;;;;;;29.54;39.72;99600.81;5090008;28;20031;-42
2023/08/17 04:54:11;;;;;;;6.93;3.70;;;;;;;29.90;38.94;99613.13;5090253;28;20073;-44
2023/08/17 04:56:36;;;;;;;5.32;3.35;;;;;;;30.11;38.71;99615.03;5090257;28;20043;-47
2023/08/17 04:59:02;;;;;;;8.73;3.80;;;;;;;30.54;37.88;99611.03;5090137;28;20111;-44
2023/08/17 05:01:27;;;;;;;7.38;4.18;;;;;;;30.87;37.52;99616.47;5091001;28;20030;-45
2023/08/17 05:03:53;;;;;;;5.78;3.92;;;;;;;31.16;36.83;99609.94;5094215;28;20030;-44
2023/08/17 05:06:18;;;;;;;7.68;3.92;;;;;;;31.36;36.19;99619.22;5093990;28;20504;-44
2023/08/17 05:08:44;;;;;;;5.68;3.63;;;;;;;31.60;35.78;99612.06;5093899;28;20023;-44
2023/08/17 05:11:10;;;;;;;6.55;3.80;;;;;;;31.81;35.26;99614.66;5093924;28;20045;-43
2023/08/17 05:13:35;;;;;;;7.82;3.92;;;;;;;31.99;34.41;99620.66;5093774;28;20028;-44
2023/08/17 05:16:00;;;;;;;6.47;3.33;;;;;;;32.32;34.04;99614.09;5093693;28;20035;-49
2023/08/17 05:18:26;;;;;;;8.05;3.70;;;;;;;32.43;33.79;99622.66;5093654;28;20024;-44
2023/08/17 05:20:51;;;;;;;6.63;3.47;;;;;;;32.63;33.37;99621.59;5093710;28;20066;-44
2023/08/17 05:23:17;;;;;;;7.53;3.50;;;;;;;32.97;32.87;99613.78;5093552;28;20020;-42
2023/08/17 05:25:47;;;;;;;5.53;3.45;;;;;;;33.21;32.70;99617.53;5093980;28;20380;-43
2023/08/17 05:28:13;;;;;;;4.50;3.33;;;;;;;33.52;32.29;99619.38;5093967;28;20024;-43
2023/08/17 05:30:38;;;;;;;4.78;3.25;;;;;;;33.65;32.03;99615.34;5093592;28;20027;-46
2023/08/17 05:33:04;;;;;;;8.55;3.60;;;;;;;33.80;31.65;99623.94;5093527;28;20020;-44
2023/08/17 05:35:29;;;;;;;7.10;3.20;;;;;;;34.16;31.54;99616.38;5084083;28;20534;-43
2023/08/17 05:37:54;;;;;;;6.63;3.10;;;;;;;33.94;31.81;99613.16;5073553;28;20048;-43
2023/08/17 05:40:20;;;;;;;8.90;3.30;;;;;;;34.50;31.44;99608.28;5073727;28;20108;-47
2023/08/17 05:42:45;;;;;;;7.80;3.33;;;;;;;34.92;30.96;99616.53;5072929;28;20016;-44
2023/08/17 05:45:11;;;;;;;9.27;3.20;;;;;;;35.32;30.18;99615.16;5073137;28;20210;-44
2023/08/17 05:47:36;;;;;;;5.10;3.38;;;;;;;35.61;29.68;99616.34;5071586;28;20104;-43
2023/08/17 05:50:02;;;;;;;7.57;3.30;;;;;;;35.31;30.14;99616.31;5072662;28;20021;-46
2023/08/17 05:52:27;;;;;;;4.97;3.28;;;;;;;35.42;30.27;99610.94;5072645;28;20409;-45
2023/08/17 05:54:53;;;;;;;6.95;3.33;;;;;;;34.71;31.16;99611.47;5072476;28;20111;-42
2023/08/17 05:57:18;;;;;;;6.35;3.38;;;;;;;34.95;30.54;99609.44;5070672;28;20020;-47
2023/08/17 05:59:44;;;;;;;4.30;3.35;;;;;;;35.25;29.82;99612.31;5072241;28;20028;-52
2023/08/17 06:02:09;;;;;;;6.05;3.30;;;;;;;35.31;29.99;99608.03;5072291;28;20475;-46
2023/08/17 06:04:35;;;;;;;6.28;3.33;;;;;;;35.60;29.32;99606.47;5072794;28;20025;-45
2023/08/17 06:07:00;;;;;;;4.32;3.08;;;;;;;35.95;28.89;99610.06;5072513;28;20024;-43
2023/08/17 06:09:25;;;;;;;5.50;2.95;;;;;;;36.45;28.55;99607.81;5072559;28;20032;-44
2023/08/17 06:11:51;;;;;;;6.65;3.40;;;;;;;36.31;28.53;99602.13;5072553;28;20027;-42
2023/08/17 06:14:16;;;;;;;6.50;3.22;;;;;;;36.75;27.87;99604.91;5072302;28;20020;-42
2023/08/17 06:16:42;;;;;;;9.15;3.38;;;;;;;36.00;29.05;99606.94;5072041;28;20017;-43
2023/08/17 06:19:07;;;;;;;5.43;3.20;;;;;;;35.88;29.08;99605.22;5072164;28;20447;-43
2023/08/17 06:21:32;;;;;;;4.50;3.20;;;;;;;36.46;28.54;99605.81;5071953;28;20353;-44
2023/08/17 06:23:58;;;;;;;6.10;3.20;;;;;;;37.09;27.63;99607.53;5071909;28;20023;-44
2023/08/17 06:26:23;;;;;;;6.35;3.00;;;;;;;37.58;27.05;99610.97;5071940;28;20091;-43
2023/08/17 06:28:49;;;;;;;8.48;3.53;;;;;;;37.63;26.99;99602.31;5071765;28;20372;-44
2023/08/17 06:31:15;;;;;;;7.22;3.28;;;;;;;36.97;27.74;99605.84;5071881;28;20481;-43
2023/08/17 06:33:40;;;;;;;6.90;3.20;;;;;;;37.63;27.04;99610.63;5072011;28;20021;-46
2023/08/17 06:36:06;;;;;;;4.80;3.50;;;;;;;37.81;26.88;99605.13;5072238;28;20104;-44
2023/08/17 06:38:31;;;;;;;5.82;3.00;;;;;;;38.16;26.35;99606.47;5071521;28;20526;-45
2023/08/17 06:40:56;;;;;;;5.65;3.40;;;;;;;38.03;26.70;99613.56;5071541;28;20043;-43
2023/08/17 06:43:22;;;;;;;5.38;3.50;;;;;;;38.29;27.00;99621.56;5071888;28;20035;-44
2023/08/17 06:45:47;;;;;;;7.63;3.05;;;;;;;38.45;26.54;99617.63;5071777;28;20115;-44
2023/08/17 06:48:13;;;;;;;6.85;3.35;;;;;;;39.15;25.24;99606.06;5071870;28;20028;-43
2023/08/17 06:50:38;;;;;;;6.18;3.08;;;;;;;39.58;24.27;99612.31;5072015;28;20036;-45
2023/08/17 06:53:04;;;;;;;7.80;3.00;;;;;;;39.93;24.19;99610.63;5071684;28;20447;-44
2023/08/17 06:55:30;;;;;;;5.30;2.88;;;;;;;39.97;24.35;99607.81;5071396;28;20525;-44
2023/08/17 06:57:55;;;;;;;7.47;3.58;;;;;;;39.88;24.31;99611.00;5071345;28;20032;-44
2023/08/17 07:00:21;;;;;;;4.30;3.03;;;;;;;38.69;25.05;99591.84;5071152;28;20400;-43
2023/08/17 07:02:47;;;;;;;3.28;2.70;;;;;;;39.04;25.37;99606.13;5070910;28;20103;-44
2023/08/17 07:05:14;;;;;;;6.18;2.97;;;;;;;39.60;24.75;99601.59;5071162;28;20032;-43
2023/08/17 07:07:40;;;;;;;5.68;3.03;;;;;;;39.80;24.07;99601.91;5070828;28;20508;-44
2023/08/17 07:10:07;;;;;;;6.82;3.10;;;;;;;40.12;23.71;99589.81;5071089;28;20130;-45
2023/08/17 07:12:32;;;;;;;3.75;2.95;;;;;;;40.53;23.72;99597.47;5070812;28;20103;-44
2023/08/17 07:14:58;;;;;;;4.70;2.95;;;;;;;40.95;23.00;99589.94;5071152;28;20081;-44
2023/08/17 07:17:23;;;;;;;4.05;2.80;;;;;;;41.23;22.89;99604.81;5070979;28;20468;-44
2023/08/17 07:19:49;;;;;;;6.93;3.20;;;;;;;41.13;23.04;99600.13;5070999;28;20016;-44
2023/08/17 07:22:16;;;;;;;9.65;3.80;;;;;;;41.23;22.41;99599.25;5070699;28;20021;-45
2023/08/17 07:24:42;;;;;;;11.60;4.60;;;;;;;39.88;23.43;99606.25;5070351;28;20554;-48
2023/08/17 07:27:07;;;;;;;6.18;3.72;;;;;;;40.85;22.86;99599.22;5070606;28;20024;-45
2023/08/17 07:29:33;;;;;;;5.78;3.10;;;;;;;41.49;22.19;99596.94;5070719;28;20021;-44
2023/08/17 07:32:01;;;;;;;4.15;2.65;;;;;;;41.93;22.02;99609.94;5070724;28;20024;-44
2023/08/17 07:34:31;;;;;;;4.55;2.53;;;;;;;42.22;21.29;99595.59;5070332;28;20484;-48
2023/08/17 07:36:57;;;;;;;5.03;2.80;;;;;;;41.56;22.13;99592.06;5071091;28;20017;-48
2023/08/17 07:39:22;;;;;;;6.80;3.10;;;;;;;41.93;21.74;99595.97;5070153;28;20058;-46
2023/08/17 07:41:48;;;;;;;3.97;2.83;;;;;;;42.38;21.24;99606.09;5070226;28;20024;-43
2023/08/17 07:44:13;;;;;;;4.10;2.80;;;;;;;42.60;20.61;99603.78;5070273;28;20133;-44
2023/08/17 07:46:38;;;;;;;4.60;2.70;;;;;;;42.60;20.38;99592.59;5070315;28;20025;-44
2023/08/17 07:49:04;;;;;;;6.55;2.70;;;;;;;42.59;20.31;99596.59;5070429;28;20016;-44
2023/08/17 07:51:31;;;;;;;4.97;2.80;;;;;;;42.75;20.40;99598.72;5070459;28;20024;-45
2023/08/17 07:53:57;;;;;;;8.43;2.70;;;;;;;42.77;20.21;99594.28;5070217;28;20021;-47
2023/08/17 07:56:22;;;;;;;7.28;2.83;;;;;;;42.44;20.81;99587.66;5070329;28;20025;-46
2023/08/17 07:58:48;;;;;;;4.63;2.80;;;;;;;43.11;20.51;99593.28;5070615;28;20111;-44
2023/08/17 08:01:13;;;;;;;3.42;2.72;;;;;;;43.44;20.14;99587.06;5069845;28;20016;-46
2023/08/17 08:03:38;;;;;;;5.20;2.80;;;;;;;43.48;19.69;99587.78;5069729;28;20476;-46
2023/08/17 08:06:04;;;;;;;6.50;2.47;;;;;;;43.72;18.96;99588.50;5070044;28;20028;-46
2023/08/17 08:08:29;;;;;;;5.25;3.10;;;;;;;41.51;20.79;99592.53;5070046;28;20020;-45
2023/08/17 08:10:55;;;;;;;3.75;2.60;;;;;;;42.05;20.39;99586.25;5070260;28;20081;-49
2023/08/17 08:13:20;;;;;;;5.22;2.92;;;;;;;42.17;20.51;99582.88;5069872;28;20102;-45
2023/08/17 08:15:46;;;;;;;2.90;2.45;;;;;;;42.82;19.77;99581.78;5070089;28;20043;-47
2023/08/17 08:18:11;;;;;;;2.53;2.33;;;;;;;42.76;19.07;99581.53;5069997;28;20426;-49
2023/08/17 08:20:37;;;;;;;5.53;2.60;;;;;;;42.35;20.19;99573.41;5069840;28;20361;-46
2023/08/17 08:23:03;;;;;;;3.33;2.47;;;;;;;42.54;19.52;99580.31;5069747;28;20032;-45
2023/08/17 08:25:28;;;;;;;3.60;2.40;;;;;;;42.39;20.15;99574.16;5069752;28;20055;-45
2023/08/17 08:27:54;;;;;;;5.22;2.45;;;;;;;42.05;20.42;99577.88;5070210;28;20146;-47
2023/08/17 08:30:19;;;;;;;3.72;2.30;;;;;;;42.38;19.84;99572.56;5069803;28;20039;-46
2023/08/17 08:32:45;;;;;;;4.82;2.47;;;;;;;42.74;19.72;99575.53;5069697;28;20025;-47
2023/08/17 08:35:10;;;;;;;3.00;2.20;;;;;;;42.37;19.72;99571.78;5069755;28;20460;-44
2023/08/17 08:37:35;;;;;;;5.32;2.20;;;;;;;40.36;21.17;99568.53;5072788;28;20024;-43
2023/08/17 08:40:01;;;;;;;3.35;2.45;;;;;;;40.28;21.90;99553.06;5073806;28;20039;-45
2023/08/17 08:42:27;;;;;;;4.25;2.28;;;;;;;40.80;21.41;99558.63;5073686;28;20407;-44
2023/08/17 08:44:53;;;;;;;4.78;2.17;;;;;;;40.57;21.28;99558.41;5073888;28;20028;-43
2023/08/17 08:47:18;;;;;;;5.18;2.22;;;;;;;39.98;22.00;99551.69;5074020;28;20030;-46
2023/08/17 08:50:02;;;;;;;6.00;2.28;;;;;;;40.32;22.18;99551.03;5073855;28;20033;-44
2023/08/17 08:52:44;;;;;;;5.03;2.28;;;;;;;40.76;21.93;99543.09;5073656;28;20048;-45
2023/08/17 08:55:18;;;;;;;3.13;2.20;;;;;;;40.54;21.69;99542.53;5073584;28;20540;-45
2023/08/17 08:57:45;;;;;;;6.80;2.65;;;;;;;40.46;22.25;99541.78;5073891;28;20017;-43
2023/08/17 09:00:12;;;;;;;6.03;2.50;;;;;;;40.64;22.22;99538.84;5073589;28;20159;-44
2023/08/17 09:02:38;;;;;;;9.13;2.38;;;;;;;40.70;21.13;99536.41;5073541;28;20024;-42
2023/08/17 09:05:06;;;;;;;4.35;2.25;;;;;;;39.84;22.03;99529.47;5073667;28;20047;-43
2023/08/17 09:07:33;;;;;;;5.40;2.50;;;;;;;39.37;23.04;99534.47;5073462;28;20074;-44
2023/08/17 09:09:59;;;;;;;4.47;2.30;;;;;;;39.22;22.84;99528.16;5073468;28;20029;-44
2023/08/17 09:12:25;;;;;;;8.20;2.40;;;;;;;38.18;23.98;99517.19;5073149;28;20028;-44
2023/08/17 09:14:50;;;;;;;2.70;2.13;;;;;;;37.85;24.06;99530.19;5073267;28;20393;-45
2023/08/17 09:17:26;;;;;;;9.25;2.67;;;;;;;38.81;24.38;99520.34;5073219;28;20023;-43
2023/08/17 09:19:53;;;;;;;4.13;2.45;;;;;;;39.19;23.23;99523.44;5073049;28;20025;-43
2023/08/17 09:22:32;;;;;;;3.88;2.50;;;;;;;38.46;23.45;99522.75;5073061;28;20086;-43
2023/08/17 09:24:57;;;;;;;;;;;;;;;37.82;24.56;99528.22;5073626;28;20488;-47
2023/08/17 09:27:23;;;;;;;4.77;2.40;;;;;;;38.16;24.35;99523.13;5072954;28;19915;-43
2023/08/17 09:29:48;;;;;;;4.63;2.40;;;;;;;37.97;24.24;99529.84;5073222;28;20251;-45
2023/08/17 09:32:17;;;;;;;3.03;2.30;;;;;;;38.77;24.06;99520.34;5072680;28;20021;-44
2023/08/17 09:34:44;;;;;;;6.80;2.55;;;;;;;38.88;23.74;99517.50;5072914;28;20396;-46
2023/08/17 09:37:12;;;;;;;3.33;2.50;;;;;;;38.07;24.87;99526.31;5072782;28;20028;-45
2023/08/17 09:39:37;;;;;;;;;;;;;;;38.12;24.79;99528.69;5072828;28;20063;-43
2023/08/17 09:42:03;;;;;;;3.67;2.13;;;;;;;38.32;23.91;99517.97;5072939;28;19908;-44
2023/08/17 09:44:29;;;;;;;4.03;2.30;;;;;;;37.76;24.82;99519.50;5072469;28;20052;-45
2023/08/17 09:46:58;;;;;;;4.00;2.10;;;;;;;37.62;25.07;99519.44;5072354;28;20421;-45
2023/08/17 09:49:24;;;;;;;4.18;2.10;;;;;;;37.70;24.94;99507.97;5072553;28;20481;-42
2023/08/17 09:51:52;;;;;;;4.10;2.40;;;;;;;38.31;24.41;99507.28;5072787;28;20035;-44
2023/08/17 09:54:26;;;;;;;6.00;2.47;;;;;;;37.83;24.22;99510.38;5072721;28;20028;-46
2023/08/17 09:56:53;;;;;;;4.45;2.60;;;;;;;37.53;24.54;99501.16;5072850;28;20028;-42
2023/08/17 09:59:19;;;;;;;4.45;2.30;;;;;;;36.87;26.43;99509.56;5072739;28;20107;-46
2023/08/17 10:01:48;;;;;;;3.78;2.10;;;;;;;37.03;25.52;99498.16;5072594;28;20029;-44
2023/08/17 10:04:19;;;;;;;4.57;2.13;;;;;;;36.57;25.71;99491.13;5072862;28;20496;-45
2023/08/17 10:06:48;;;;;;;3.90;2.30;;;;;;;36.01;26.78;99483.94;5073035;28;20024;-51
2023/08/17 10:09:14;;;;;;;;;;;;;;;36.15;26.99;99491.56;5073814;28;20020;-47
2023/08/17 10:11:40;;;;;;;3.70;2.08;;;;;;;36.47;26.54;99483.53;5073325;28;19916;-44
2023/08/17 10:14:21;;;;;;;3.20;2.17;;;;;;;36.61;25.40;99488.38;5083659;28;20480;-46
2023/08/17 10:16:53;;;;;;;5.00;2.40;;;;;;;37.43;25.11;99478.94;5089102;28;20108;-45
2023/08/17 10:19:59;;;;;;;2.83;2.22;;;;;;;36.55;25.36;99489.94;5089994;28;20027;-45
2023/08/17 10:22:38;;;;;;;4.20;2.38;;;;;;;35.89;25.34;99475.91;5088249;28;20134;-45
2023/08/17 10:25:05;;;;;;;3.58;2.38;;;;;;;35.91;25.76;99481.88;5089837;28;20111;-49
2023/08/17 10:27:32;;;;;;;3.27;2.10;;;;;;;35.95;25.69;99477.97;5084851;28;20028;-43
2023/08/17 10:29:58;;;;;;;6.00;2.22;;;;;;;36.82;25.17;99476.66;5089103;28;20114;-47
2023/08/17 10:32:24;;;;;;;3.67;2.15;;;;;;;36.56;24.48;99459.06;5089707;28;20102;-45
2023/08/17 10:34:51;;;;;;;2.38;2.17;;;;;;;36.45;25.17;99463.75;5090043;28;20074;-45
2023/08/17 10:37:19;;;;;;;3.67;2.33;;;;;;;36.64;24.43;99453.59;5090011;28;20118;-52
2023/08/17 10:39:48;;;;;;;5.38;2.00;;;;;;;37.10;24.27;99461.34;5084371;28;20054;-45
2023/08/17 10:42:14;;;;;;;3.90;2.20;;;;;;;36.74;24.99;99466.72;5077162;28;20523;-51
2023/08/17 10:44:47;;;;;;;3.25;2.10;;;;;;;36.39;25.15;99452.22;5088943;28;20024;-45
2023/08/17 10:47:31;;;;;;;4.47;2.53;;;;;;;36.98;24.83;99454.19;5089560;28;20047;-48
2023/08/17 10:50:17;;;;;;;3.28;2.25;;;;;;;36.44;25.08;99453.84;5089146;28;20475;-47
2023/08/17 10:52:43;;;;;;;4.05;2.05;;;;;;;35.87;24.99;99456.13;5089030;28;20032;-45
2023/08/17 10:55:12;;;;;;;2.63;2.10;;;;;;;35.92;25.33;99450.25;5092603;28;20107;-49
2023/08/17 10:57:39;;;;;;;5.70;2.22;;;;;;;36.69;25.34;99450.47;5092340;28;20024;-46
2023/08/17 11:00:10;;;;;;;5.03;2.60;;;;;;;36.08;25.38;99436.97;5091220;28;20020;-46
2023/08/17 11:02:37;;;;;;;2.83;2.17;;;;;;;35.69;25.17;99445.69;5091981;28;20460;-43
2023/08/17 11:05:04;;;;;;;4.45;2.17;;;;;;;35.91;25.77;99445.88;5092019;28;20055;-45
2023/08/17 11:07:40;;;;;;;4.07;2.28;;;;;;;36.36;25.13;99438.34;5073505;28;20016;-47
2023/08/17 11:10:27;;;;;;;2.45;2.10;;;;;;;36.92;24.16;99428.03;5088993;28;20027;-45
2023/08/17 11:12:59;;;;;;;5.53;2.13;;;;;;;37.25;23.89;99426.19;5091586;28;20065;-47
2023/08/17 11:15:26;;;;;;;4.18;2.40;;;;;;;37.32;23.93;99435.31;5091733;28;20059;-43
2023/08/17 11:17:52;;;;;;;5.25;2.30;;;;;;;37.46;23.87;99417.13;5091731;28;20054;-44
2023/08/17 11:20:18;;;;;;;4.97;2.20;;;;;;;37.56;23.68;99421.88;5088510;28;20555;-46
2023/08/17 11:22:43;;;;;;;2.53;2.05;;;;;;;37.47;23.26;99407.59;5087320;28;20111;-46
2023/08/17 11:25:09;;;;;;;3.83;2.35;;;;;;;37.03;23.60;99408.63;5091095;28;20099;-49
2023/08/17 11:27:36;;;;;;;3.65;2.00;;;;;;;38.32;22.67;99406.06;5090861;28;20020;-45
2023/08/17 11:30:02;;;;;;;3.38;2.17;;;;;;;39.10;21.75;99407.03;5090990;28;20070;-45
2023/08/17 11:32:28;;;;;;;4.72;2.22;;;;;;;39.69;21.73;99404.28;5091099;28;20085;-46